createdAt,value
2023-05-04T00:00:48.672Z,10.44
2023-05-04T00:03:17.181Z,10.43
2023-05-04T00:05:45.722Z,10.40
2023-05-04T00:08:15.462Z,10.37
2023-05-04T00:10:43.870Z,10.32
2023-05-04T00:13:13.424Z,10.27
2023-05-04T00:15:42.027Z,10.22
2023-05-04T00:18:10.496Z,10.17
2023-05-04T00:20:39.273Z,10.12
2023-05-04T00:23:07.699Z,10.04
2023-05-04T00:25:37.423Z,10.09
2023-05-04T00:28:06.041Z,10.15
2023-05-04T00:30:34.475Z,10.25
2023-05-04T00:33:03.075Z,10.25
2023-05-04T00:35:32.033Z,10.27
2023-05-04T00:38:00.566Z,10.28
2023-05-04T00:40:29.062Z,10.23
2023-05-04T00:42:58.886Z,9.40
2023-05-04T00:45:27.759Z,10.11
2023-05-04T00:47:58.125Z,10.09
2023-05-04T00:50:27.252Z,10.00
2023-05-04T00:52:57.616Z,9.11
2023-05-04T00:55:26.287Z,9.87
2023-05-04T00:57:54.810Z,9.87
2023-05-04T01:00:25.165Z,9.83
2023-05-04T01:02:53.899Z,9.77
2023-05-04T01:05:24.142Z,9.74
2023-05-04T01:08:00.046Z,9.72
2023-05-04T01:10:35.700Z,9.64
2023-05-04T01:13:09.737Z,9.59
2023-05-04T01:15:40.150Z,9.54
2023-05-04T01:18:08.738Z,9.47
2023-05-04T01:20:37.320Z,9.45
2023-05-04T01:23:07.631Z,9.50
2023-05-04T01:25:41.487Z,9.34
2023-05-04T01:28:13.374Z,9.45
2023-05-04T01:30:46.458Z,9.43
2023-05-04T01:33:17.659Z,9.41
2023-05-04T01:35:46.822Z,9.36
2023-05-04T01:38:17.692Z,9.30
2023-05-04T01:40:46.160Z,9.26
2023-05-04T01:43:14.544Z,9.28
2023-05-04T01:45:43.009Z,9.28
2023-05-04T01:48:13.944Z,9.25
2023-05-04T01:50:42.392Z,9.23
2023-05-04T01:53:11.048Z,9.22
2023-05-04T01:55:40.849Z,9.24
2023-05-04T01:58:12.434Z,9.18
2023-05-04T02:00:40.971Z,9.15
2023-05-04T02:03:09.824Z,9.08
2023-05-04T02:05:38.440Z,9.03
2023-05-04T02:08:07.134Z,9.00
2023-05-04T02:10:35.621Z,8.98
2023-05-04T02:13:05.486Z,8.99
2023-05-04T02:15:34.026Z,8.94
2023-05-04T02:18:02.380Z,8.91
2023-05-04T02:20:30.883Z,8.87
2023-05-04T02:22:59.422Z,8.85
2023-05-04T02:25:27.839Z,8.85
2023-05-04T02:27:56.187Z,8.83
2023-05-04T02:30:26.145Z,8.80
2023-05-04T02:32:54.723Z,8.80
2023-05-04T02:35:24.030Z,8.78
2023-05-04T02:37:52.421Z,8.72
2023-05-04T02:40:20.875Z,8.67
2023-05-04T02:42:49.271Z,8.65
2023-05-04T02:45:18.007Z,8.69
2023-05-04T02:47:47.931Z,8.69
2023-05-04T02:50:17.442Z,8.64
2023-05-04T02:52:45.901Z,8.59
2023-05-04T02:55:14.371Z,8.58
2023-05-04T02:57:42.888Z,8.59
2023-05-04T03:00:12.267Z,8.57
2023-05-04T03:02:41.150Z,8.51
2023-05-04T03:05:11.514Z,8.46
2023-05-04T03:07:39.970Z,8.43
2023-05-04T03:10:10.194Z,8.40
2023-05-04T03:12:38.721Z,8.38
2023-05-04T03:15:08.274Z,8.45
2023-05-04T03:17:37.891Z,8.48
2023-05-04T03:20:08.221Z,8.44
2023-05-04T03:22:38.389Z,8.42
2023-05-04T03:25:08.383Z,8.39
2023-05-04T03:27:37.085Z,8.31
2023-05-04T03:30:06.741Z,8.30
2023-05-04T03:32:36.427Z,8.26
2023-05-04T03:35:05.583Z,8.21
2023-05-04T03:37:33.986Z,8.18
2023-05-04T03:40:04.023Z,8.13
2023-05-04T03:42:32.585Z,8.09
2023-05-04T03:45:03.738Z,8.07
2023-05-04T03:47:32.806Z,8.10
2023-05-04T03:50:01.214Z,8.09
2023-05-04T03:52:29.699Z,8.09
2023-05-04T03:54:58.048Z,8.07
2023-05-04T03:57:27.856Z,8.07
2023-05-04T03:59:57.995Z,8.02
2023-05-04T04:02:27.632Z,7.97
2023-05-04T04:04:56.192Z,7.92
2023-05-04T04:07:25.017Z,7.81
2023-05-04T04:09:53.650Z,7.91
2023-05-04T04:12:22.144Z,7.92
2023-05-04T04:14:52.546Z,7.92
2023-05-04T04:17:21.284Z,7.88
2023-05-04T04:19:49.617Z,7.88
2023-05-04T04:22:18.036Z,7.85
2023-05-04T04:24:46.432Z,7.81
2023-05-04T04:27:14.862Z,7.78
2023-05-04T04:29:44.231Z,7.76
2023-05-04T04:32:14.708Z,7.77
2023-05-04T04:34:43.491Z,7.78
2023-05-04T04:37:12.044Z,7.83
2023-05-04T04:39:40.600Z,7.84
2023-05-04T04:42:09.017Z,7.81
2023-05-04T04:44:37.748Z,7.83
2023-05-04T04:47:06.785Z,7.81
2023-05-04T04:49:36.604Z,7.81
2023-05-04T04:52:05.188Z,7.81
2023-05-04T04:54:34.029Z,7.82
2023-05-04T04:57:03.528Z,7.83
2023-05-04T04:59:32.112Z,7.70
2023-05-04T05:02:00.731Z,7.80
2023-05-04T05:04:29.892Z,7.79
2023-05-04T05:07:00.718Z,7.80
2023-05-04T05:09:29.162Z,7.91
2023-05-04T05:11:57.505Z,7.96
2023-05-04T05:14:26.167Z,7.95
2023-05-04T05:16:54.687Z,7.97
2023-05-04T05:19:23.211Z,7.97
2023-05-04T05:21:51.710Z,7.83
2023-05-04T05:24:21.616Z,7.84
2023-05-04T05:26:50.027Z,7.53
2023-05-04T05:29:18.374Z,8.16
2023-05-04T05:31:46.976Z,8.20
2023-05-04T05:34:15.356Z,8.26
2023-05-04T05:36:44.716Z,8.37
2023-05-04T05:39:13.281Z,8.54
2023-05-04T05:41:43.534Z,8.74
2023-05-04T05:44:13.176Z,8.98
2023-05-04T05:46:41.822Z,9.21
2023-05-04T05:49:11.591Z,9.43
2023-05-04T05:51:40.129Z,9.64
2023-05-04T05:54:08.501Z,9.88
2023-05-04T05:56:36.862Z,10.10
2023-05-04T05:59:06.703Z,10.25
2023-05-04T06:01:35.088Z,10.34
2023-05-04T06:04:04.354Z,10.45
2023-05-04T06:06:32.952Z,10.57
2023-05-04T06:09:01.609Z,10.79
2023-05-04T06:11:30.206Z,11.06
2023-05-04T06:13:58.732Z,11.49
2023-05-04T06:16:28.543Z,12.02
2023-05-04T06:18:57.276Z,12.76
2023-05-04T06:21:26.050Z,13.52
2023-05-04T06:23:54.490Z,14.34
2023-05-04T06:26:23.715Z,15.10
2023-05-04T06:28:52.162Z,15.86
2023-05-04T06:31:20.634Z,16.63
2023-05-04T06:33:50.565Z,17.40
2023-05-04T06:36:19.128Z,17.98
2023-05-04T06:38:47.592Z,18.57
2023-05-04T06:41:16.058Z,19.17
2023-05-04T06:43:44.680Z,19.72
2023-05-04T06:46:13.297Z,20.15
2023-05-04T06:48:41.751Z,20.55
2023-05-04T06:51:11.542Z,20.55
2023-05-04T06:53:39.958Z,20.38
2023-05-04T06:56:09.023Z,20.53
2023-05-04T06:58:37.318Z,20.78
2023-05-04T07:01:09.301Z,21.27
2023-05-04T07:03:39.088Z,21.78
2023-05-04T07:06:08.786Z,21.34
2023-05-04T07:08:38.751Z,22.41
2023-05-04T07:11:07.249Z,22.68
2023-05-04T07:13:35.632Z,22.56
2023-05-04T07:16:04.169Z,22.19
2023-05-04T07:18:32.634Z,21.71
2023-05-04T07:21:16.042Z,21.36
2023-05-04T07:23:46.583Z,21.28
2023-05-04T07:26:14.983Z,21.41
2023-05-04T07:28:44.502Z,21.37
2023-05-04T07:31:14.472Z,21.22
2023-05-04T07:33:42.929Z,21.25
2023-05-04T07:36:11.396Z,21.60
2023-05-04T07:38:39.914Z,21.97
2023-05-04T07:41:10.486Z,22.60
2023-05-04T07:43:38.975Z,22.91
2023-05-04T07:46:07.497Z,23.10
2023-05-04T07:48:35.876Z,23.29
2023-05-04T07:51:04.553Z,23.34
2023-05-04T07:53:32.957Z,23.35
2023-05-04T07:56:11.418Z,23.31
2023-05-04T07:58:39.865Z,23.16
2023-05-04T08:01:09.302Z,22.85
2023-05-04T08:03:37.793Z,22.69
2023-05-04T08:06:06.365Z,22.65
2023-05-04T08:08:34.849Z,22.61
2023-05-04T08:11:18.460Z,22.42
2023-05-04T08:13:50.773Z,22.39
2023-05-04T08:16:19.237Z,22.33
2023-05-04T08:18:47.719Z,22.33
2023-05-04T08:21:16.170Z,22.30
2023-05-04T08:23:44.593Z,22.30
2023-05-04T08:26:12.960Z,22.12
2023-05-04T08:28:41.817Z,22.03
2023-05-04T08:31:11.861Z,21.78
2023-05-04T08:33:40.298Z,21.77
2023-05-04T08:36:10.172Z,21.98
2023-05-04T08:38:38.788Z,21.99
2023-05-04T08:41:07.761Z,21.89
2023-05-04T08:43:37.542Z,21.72
2023-05-04T08:46:07.649Z,21.73
2023-05-04T08:48:38.291Z,21.76
2023-05-04T08:51:08.369Z,21.82
2023-05-04T08:53:38.989Z,21.88
2023-05-04T08:56:10.189Z,21.97
2023-05-04T08:58:40.191Z,22.08
2023-05-04T09:01:09.291Z,22.00
2023-05-04T09:03:39.586Z,22.07
2023-05-04T09:06:09.478Z,22.15
2023-05-04T09:08:37.890Z,22.18
2023-05-04T09:11:06.458Z,22.20
2023-05-04T09:13:35.666Z,22.26
2023-05-04T09:16:05.142Z,22.31
2023-05-04T09:18:42.361Z,22.51
2023-05-04T09:21:12.132Z,22.51
2023-05-04T09:23:48.255Z,22.33
2023-05-04T09:26:17.060Z,22.61
2023-05-04T09:28:45.387Z,22.75
2023-05-04T09:31:15.809Z,22.90
2023-05-04T09:33:45.628Z,23.17
2023-05-04T09:36:15.777Z,23.40
2023-05-04T09:38:44.491Z,23.62
2023-05-04T09:41:12.976Z,23.76
2023-05-04T09:43:42.187Z,23.89
2023-05-04T09:46:17.551Z,24.01
2023-05-04T09:48:55.299Z,24.11
2023-05-04T09:51:25.197Z,24.14
2023-05-04T09:53:54.061Z,24.24
2023-05-04T09:56:33.889Z,24.35
2023-05-04T09:59:02.835Z,24.44
2023-05-04T10:01:31.800Z,24.37
2023-05-04T10:04:03.068Z,24.37
2023-05-04T10:06:31.906Z,24.13
2023-05-04T10:09:01.463Z,24.43
2023-05-04T10:11:30.665Z,24.28
2023-05-04T10:14:00.443Z,24.21
2023-05-04T10:16:39.758Z,23.60
2023-05-04T10:19:34.987Z,24.54
2023-05-04T10:22:15.706Z,24.62
2023-05-04T10:25:23.991Z,24.65
2023-05-04T10:28:06.278Z,24.61
2023-05-04T10:30:35.050Z,24.80
2023-05-04T10:33:03.893Z,24.90
2023-05-04T10:35:33.917Z,24.91
2023-05-04T10:38:02.464Z,24.98
2023-05-04T10:40:36.671Z,25.00
2023-05-04T10:43:05.319Z,24.99
2023-05-04T10:45:37.894Z,25.09
2023-05-04T10:48:08.091Z,25.14
2023-05-04T10:50:45.065Z,25.25
2023-05-04T10:53:13.786Z,25.27
2023-05-04T10:55:43.462Z,25.31
2023-05-04T10:58:15.008Z,25.32
2023-05-04T11:00:45.497Z,25.22
2023-05-04T11:03:14.528Z,25.26
2023-05-04T11:05:46.576Z,25.23
2023-05-04T11:08:19.577Z,25.26
2023-05-04T11:10:48.904Z,25.34
2023-05-04T11:13:17.598Z,25.44
2023-05-04T11:15:49.923Z,25.55
2023-05-04T11:18:28.211Z,25.64
2023-05-04T11:20:58.734Z,25.51
2023-05-04T11:23:28.498Z,25.79
2023-05-04T11:25:57.470Z,25.84
2023-05-04T11:28:33.727Z,25.82
2023-05-04T11:31:02.501Z,25.88
2023-05-04T11:33:31.966Z,25.82
2023-05-04T11:36:02.696Z,25.82
2023-05-04T11:38:31.361Z,25.88
2023-05-04T11:40:59.942Z,25.89
2023-05-04T11:43:28.528Z,25.88
2023-05-04T11:45:59.930Z,25.89
2023-05-04T11:48:29.316Z,25.97
2023-05-04T11:50:58.094Z,26.01
2023-05-04T11:53:28.770Z,25.99
2023-05-04T11:56:03.527Z,25.92
2023-05-04T11:58:31.958Z,25.88
2023-05-04T12:01:00.754Z,25.94
2023-05-04T12:03:43.854Z,26.00
2023-05-04T12:06:20.307Z,25.78
2023-05-04T12:08:50.146Z,25.81
2023-05-04T12:11:21.795Z,25.72
2023-05-04T12:14:03.158Z,25.65
2023-05-04T12:16:31.823Z,25.67
2023-05-04T12:19:05.407Z,25.80
2023-05-04T12:21:34.515Z,25.78
2023-05-04T12:24:05.148Z,25.86
2023-05-04T12:26:33.803Z,25.94
2023-05-04T12:29:02.156Z,25.98
2023-05-04T12:31:30.820Z,25.98
2023-05-04T12:33:59.330Z,25.88
2023-05-04T12:36:27.861Z,25.87
2023-05-04T12:38:56.606Z,25.92
2023-05-04T12:41:27.934Z,26.04
2023-05-04T12:43:56.367Z,26.09
2023-05-04T12:46:24.762Z,26.06
2023-05-04T12:48:53.199Z,26.07
2023-05-04T12:51:21.592Z,26.03
2023-05-04T12:53:50.067Z,26.01
2023-05-04T12:56:18.399Z,26.04
2023-05-04T12:58:48.195Z,25.98
2023-05-04T13:01:16.939Z,25.87
2023-05-04T13:03:45.491Z,25.84
2023-05-04T13:06:14.342Z,25.81
2023-05-04T13:08:44.560Z,25.84
2023-05-04T13:11:13.000Z,25.84
2023-05-04T13:13:41.547Z,25.93
2023-05-04T13:16:11.783Z,25.91
2023-05-04T13:18:40.513Z,25.83
2023-05-04T13:21:08.912Z,25.83
2023-05-04T13:23:37.279Z,25.95
2023-05-04T13:26:06.529Z,26.02
2023-05-04T13:28:35.653Z,26.05
2023-05-04T13:31:05.767Z,26.15
2023-05-04T13:33:38.831Z,26.21
2023-05-04T13:36:08.304Z,26.16
2023-05-04T13:38:36.855Z,26.10
2023-05-04T13:41:06.381Z,26.02
2023-05-04T13:43:34.810Z,25.96
2023-05-04T13:46:04.742Z,26.00
2023-05-04T13:48:34.249Z,25.98
2023-05-04T13:51:05.785Z,25.94
2023-05-04T13:53:34.167Z,25.92
2023-05-04T13:56:02.983Z,25.96
2023-05-04T13:58:31.404Z,25.95
2023-05-04T14:01:00.661Z,26.01
2023-05-04T14:03:29.850Z,25.97
2023-05-04T14:05:58.304Z,25.90
2023-05-04T14:08:28.448Z,25.85
2023-05-04T14:10:56.882Z,25.84
2023-05-04T14:13:25.192Z,25.85
2023-05-04T14:15:53.520Z,25.82
2023-05-04T14:18:22.149Z,25.76
2023-05-04T14:20:50.732Z,25.67
2023-05-04T14:23:19.135Z,25.76
2023-05-04T14:25:52.910Z,25.72
2023-05-04T14:28:21.312Z,25.68
2023-05-04T14:30:49.696Z,25.70
2023-05-04T14:33:18.105Z,25.67
2023-05-04T14:35:48.211Z,25.59
2023-05-04T14:38:17.183Z,25.55
2023-05-04T14:40:47.619Z,25.50
2023-05-04T14:43:19.145Z,25.44
2023-05-04T14:45:47.631Z,25.37
2023-05-04T14:48:15.999Z,25.29
2023-05-04T14:50:44.448Z,25.10
2023-05-04T14:53:12.879Z,25.05
2023-05-04T14:55:42.090Z,25.06
2023-05-04T14:58:10.745Z,25.14
2023-05-04T15:00:40.568Z,25.18
2023-05-04T15:03:09.367Z,25.12
2023-05-04T15:05:38.244Z,25.08
2023-05-04T15:08:07.108Z,24.96
2023-05-04T15:10:35.948Z,24.88
2023-05-04T15:13:04.493Z,24.80
2023-05-04T15:15:33.120Z,24.74
2023-05-04T15:18:02.977Z,24.74
2023-05-04T15:20:31.405Z,24.77
2023-05-04T15:23:00.289Z,24.72
2023-05-04T15:25:28.763Z,24.72
2023-05-04T15:27:57.133Z,24.67
2023-05-04T15:30:25.508Z,24.67
2023-05-04T15:32:54.033Z,24.56
2023-05-04T15:35:24.063Z,24.58
2023-05-04T15:37:52.919Z,24.49
2023-05-04T15:40:21.388Z,24.41
2023-05-04T15:42:49.759Z,24.43
2023-05-04T15:45:18.518Z,24.39
2023-05-04T15:47:47.070Z,24.41
2023-05-04T15:50:15.605Z,24.47
2023-05-04T15:52:45.533Z,24.47
2023-05-04T15:55:25.337Z,24.53
2023-05-04T15:57:55.151Z,24.51
2023-05-04T16:00:24.012Z,24.53
2023-05-04T16:02:52.733Z,24.46
2023-05-04T16:05:21.664Z,24.42
2023-05-04T16:07:52.341Z,24.36
2023-05-04T16:10:21.017Z,24.34
2023-05-04T16:12:50.556Z,24.30
2023-05-04T16:15:19.203Z,24.22
2023-05-04T16:17:47.633Z,24.26
2023-05-04T16:20:16.232Z,24.28
2023-05-04T16:22:44.519Z,24.22
2023-05-04T16:25:14.355Z,24.00
2023-05-04T16:27:43.275Z,24.05
2023-05-04T16:30:12.839Z,24.02
2023-05-04T16:32:41.236Z,24.00
2023-05-04T16:35:10.314Z,23.96
2023-05-04T16:37:38.995Z,23.93
2023-05-04T16:40:15.448Z,23.87
2023-05-04T16:42:44.374Z,23.79
2023-05-04T16:45:14.832Z,23.83
2023-05-04T16:47:44.056Z,23.77
2023-05-04T16:50:13.998Z,23.77
2023-05-04T16:52:42.776Z,23.71
2023-05-04T16:55:12.561Z,23.64
2023-05-04T16:57:42.740Z,23.54
2023-05-04T17:00:13.558Z,23.42
2023-05-04T17:02:42.370Z,23.36
2023-05-04T17:05:11.490Z,23.28
2023-05-04T17:07:43.465Z,23.28
2023-05-04T17:10:12.980Z,22.94
2023-05-04T17:12:43.126Z,23.12
2023-05-04T17:15:13.158Z,23.03
2023-05-04T17:17:41.794Z,22.98
2023-05-04T17:20:14.924Z,22.90
2023-05-04T17:22:44.426Z,22.82
2023-05-04T17:25:13.505Z,22.77
2023-05-04T17:27:44.020Z,22.69
2023-05-04T17:30:13.836Z,22.62
2023-05-04T17:32:42.245Z,22.55
2023-05-04T17:35:20.930Z,22.49
2023-05-04T17:37:57.584Z,22.40
2023-05-04T17:40:27.607Z,22.10
2023-05-04T17:43:00.319Z,22.20
2023-05-04T17:45:28.929Z,22.17
2023-05-04T17:47:57.355Z,22.11
2023-05-04T17:50:26.186Z,22.03
2023-05-04T17:52:55.170Z,21.94
2023-05-04T17:55:25.069Z,21.89
2023-05-04T17:57:53.922Z,21.82
2023-05-04T18:00:24.337Z,21.77
2023-05-04T18:02:52.874Z,21.64
2023-05-04T18:05:21.737Z,21.56
2023-05-04T18:07:50.146Z,21.44
2023-05-04T18:10:18.640Z,21.35
2023-05-04T18:12:47.292Z,21.25
2023-05-04T18:15:17.334Z,21.22
2023-05-04T18:17:48.743Z,21.12
2023-05-04T18:20:17.412Z,21.02
2023-05-04T18:22:46.723Z,20.92
2023-05-04T18:25:15.457Z,20.83
2023-05-04T18:27:43.802Z,20.72
2023-05-04T18:30:12.772Z,20.63
2023-05-04T18:32:41.202Z,20.56
2023-05-04T18:35:11.754Z,20.52
2023-05-04T18:37:40.176Z,20.45
2023-05-04T18:40:09.914Z,20.39
2023-05-04T18:42:38.496Z,20.28
2023-05-04T18:45:08.211Z,20.13
2023-05-04T18:47:36.685Z,20.06
2023-05-04T18:50:05.689Z,19.99
2023-05-04T18:52:35.812Z,19.88
2023-05-04T18:55:04.152Z,19.72
2023-05-04T18:57:32.513Z,19.50
2023-05-04T19:00:00.908Z,19.26
2023-05-04T19:02:30.106Z,19.04
2023-05-04T19:04:58.680Z,18.85
2023-05-04T19:07:27.136Z,18.63
2023-05-04T19:09:58.928Z,18.52
2023-05-04T19:12:27.523Z,18.38
2023-05-04T19:14:55.991Z,18.19
2023-05-04T19:17:24.637Z,18.01
2023-05-04T19:19:53.294Z,17.85
2023-05-04T19:22:21.717Z,17.69
2023-05-04T19:24:52.049Z,17.47
2023-05-04T19:27:22.259Z,17.32
2023-05-04T19:29:50.929Z,17.17
2023-05-04T19:32:24.414Z,17.07
2023-05-04T19:34:53.877Z,16.95
2023-05-04T19:37:22.315Z,16.80
2023-05-04T19:39:50.908Z,16.76
2023-05-04T19:42:19.425Z,16.75
2023-05-04T19:44:50.248Z,16.69
2023-05-04T19:47:18.993Z,16.53
2023-05-04T19:49:48.669Z,16.40
2023-05-04T19:52:17.364Z,16.35
2023-05-04T19:54:48.457Z,16.27
2023-05-04T19:57:17.131Z,16.20
2023-05-04T19:59:46.991Z,16.06
2023-05-04T20:02:17.503Z,15.96
2023-05-04T20:04:46.032Z,15.86
2023-05-04T20:07:14.385Z,15.80
2023-05-04T20:09:42.914Z,15.72
2023-05-04T20:12:12.736Z,15.63
2023-05-04T20:14:43.852Z,15.50
2023-05-04T20:17:12.321Z,15.41
2023-05-04T20:19:43.241Z,15.30
2023-05-04T20:22:11.697Z,15.16
2023-05-04T20:24:40.899Z,15.03
2023-05-04T20:27:11.377Z,14.96
2023-05-04T20:29:39.843Z,14.90
2023-05-04T20:32:09.197Z,14.89
2023-05-04T20:34:39.728Z,14.54
2023-05-04T20:37:09.640Z,14.72
2023-05-04T20:39:38.035Z,14.63
2023-05-04T20:42:06.781Z,14.58
2023-05-04T20:44:36.262Z,14.52
2023-05-04T20:47:05.697Z,14.44
2023-05-04T20:49:34.198Z,14.44
2023-05-04T20:52:03.079Z,14.40
2023-05-04T20:54:32.940Z,14.39
2023-05-04T20:57:01.563Z,14.30
2023-05-04T20:59:30.118Z,14.20
2023-05-04T21:01:58.708Z,14.05
2023-05-04T21:04:27.173Z,14.01
2023-05-04T21:06:55.717Z,13.95
2023-05-04T21:09:24.183Z,13.94
2023-05-04T21:11:55.063Z,13.93
2023-05-04T21:14:23.552Z,13.86
2023-05-04T21:16:51.887Z,13.86
2023-05-04T21:19:20.723Z,13.80
2023-05-04T21:21:49.141Z,13.76
2023-05-04T21:24:17.598Z,13.68
2023-05-04T21:26:46.403Z,13.57
2023-05-04T21:29:16.536Z,13.50
2023-05-04T21:31:45.074Z,13.41
2023-05-04T21:34:13.761Z,13.37
2023-05-04T21:36:44.589Z,13.32
2023-05-04T21:39:13.811Z,13.36
2023-05-04T21:41:42.191Z,13.42
2023-05-04T21:44:10.596Z,13.43
2023-05-04T21:46:41.424Z,13.40
2023-05-04T21:49:09.877Z,13.32
2023-05-04T21:51:38.298Z,13.20
2023-05-04T21:54:06.926Z,13.13
2023-05-04T21:56:35.325Z,13.13
2023-05-04T21:59:04.028Z,13.21
2023-05-04T22:01:32.990Z,13.26
2023-05-04T22:04:03.685Z,13.23
2023-05-04T22:06:32.235Z,13.14
2023-05-04T22:09:00.749Z,13.07
2023-05-04T22:11:29.552Z,12.99
2023-05-04T22:13:58.022Z,12.89
2023-05-04T22:16:26.511Z,12.82
2023-05-04T22:18:55.028Z,12.76
2023-05-04T22:21:24.895Z,12.65
2023-05-04T22:23:53.305Z,12.61
2023-05-04T22:26:21.810Z,12.51
2023-05-04T22:28:50.205Z,12.47
2023-05-04T22:31:18.718Z,12.42
2023-05-04T22:33:47.250Z,12.37
2023-05-04T22:36:15.694Z,12.31
2023-05-04T22:38:45.452Z,12.24
2023-05-04T22:41:14.863Z,12.12
2023-05-04T22:43:43.363Z,12.05
2023-05-04T22:46:15.921Z,11.98
2023-05-04T22:48:44.494Z,11.89
2023-05-04T22:51:13.320Z,11.83
2023-05-04T22:53:41.871Z,11.78
2023-05-04T22:56:12.689Z,11.76
2023-05-04T22:58:41.066Z,11.78
2023-05-04T23:01:11.737Z,11.88
2023-05-04T23:03:40.597Z,11.56
2023-05-04T23:06:09.899Z,11.92
2023-05-04T23:08:38.818Z,11.85
2023-05-04T23:11:07.296Z,11.75
2023-05-04T23:13:37.706Z,11.69
2023-05-04T23:16:07.592Z,11.61
2023-05-04T23:18:36.059Z,11.59
2023-05-04T23:21:04.547Z,11.59
2023-05-04T23:23:33.009Z,11.56
2023-05-04T23:26:01.503Z,11.51
2023-05-04T23:28:29.877Z,11.54
2023-05-04T23:30:59.797Z,11.59
2023-05-04T23:33:28.267Z,11.63
2023-05-04T23:35:56.988Z,11.64
2023-05-04T23:38:26.424Z,11.49
2023-05-04T23:40:55.158Z,11.37
2023-05-04T23:43:23.838Z,11.34
2023-05-04T23:45:59.638Z,11.29
2023-05-04T23:48:29.808Z,11.13
2023-05-04T23:50:59.070Z,11.02
2023-05-04T23:53:27.479Z,11.18
2023-05-04T23:56:02.712Z,11.18
2023-05-04T23:58:33.155Z,11.17
